Terminal Aerodrome Forecast
Issued by NWS Midland/Odessa, TX

Home | Current Version | Previous Version | Text Only | Print | Product List | Glossary On
Versions: 1 2 3 4 5 6 7 8 9 10 11 12 13
000
FTUS44 KMAF 171723
TAFMAF
TAF
KMAF 171723Z 1718/1818 23006KT P6SM SCT250
     FM180100 12007KT P6SM BKN250
      TEMPO 1810/1814 4SM BR BKN005=

USA.gov is the U.S. government's official web portal to all federal, state and local government web resources and services.